sensor_id;sensor_type;location;lat;lon;timestamp;pressure;altitude;pressure_sealevel;temperature;humidity
1926;BME280;964;42.606;23.588;2024-03-07T00:01:40;94284.72;;;15.55;53.81
1926;BME280;964;42.606;23.588;2024-03-07T00:04:06;94285.56;;;14.60;55.82
1926;BME280;964;42.606;23.588;2024-03-07T00:06:34;94276.41;;;14.68;56.03
1926;BME280;964;42.606;23.588;2024-03-07T00:09:00;94285.94;;;14.69;55.85
1926;BME280;964;42.606;23.588;2024-03-07T00:11:28;94284.41;;;14.82;55.51
1926;BME280;964;42.606;23.588;2024-03-07T00:13:57;94275.66;;;14.57;55.49
1926;BME280;964;42.606;23.588;2024-03-07T00:16:23;94273.28;;;15.37;54.46
1926;BME280;964;42.606;23.588;2024-03-07T00:18:50;94277.19;;;14.93;55.03
1926;BME280;964;42.606;23.588;2024-03-07T00:21:17;94281.34;;;14.52;55.55
1926;BME280;964;42.606;23.588;2024-03-07T00:23:44;94281.75;;;14.75;55.96
1926;BME280;964;42.606;23.588;2024-03-07T00:26:10;94274.88;;;14.60;55.62
1926;BME280;964;42.606;23.588;2024-03-07T00:28:37;94273.28;;;15.37;53.33
1926;BME280;964;42.606;23.588;2024-03-07T00:31:06;94270.66;;;15.01;54.56
1926;BME280;964;42.606;23.588;2024-03-07T00:33:34;94277.84;;;15.50;53.13
1926;BME280;964;42.606;23.588;2024-03-07T00:36:01;94274.63;;;15.94;52.47
1926;BME280;964;42.606;23.588;2024-03-07T00:38:29;94269.28;;;15.94;51.40
1926;BME280;964;42.606;23.588;2024-03-07T00:40:55;94268.78;;;14.84;54.27
1926;BME280;964;42.606;23.588;2024-03-07T00:43:22;94275.34;;;16.05;52.55
1926;BME280;964;42.606;23.588;2024-03-07T00:45:50;94269.66;;;15.93;51.73
1926;BME280;964;42.606;23.588;2024-03-07T00:48:18;94269.75;;;15.75;51.89
1926;BME280;964;42.606;23.588;2024-03-07T00:50:45;94271.78;;;15.29;53.20
1926;BME280;964;42.606;23.588;2024-03-07T00:53:12;94280.13;;;15.38;54.02
1926;BME280;964;42.606;23.588;2024-03-07T00:55:40;94274.00;;;15.62;52.14
1926;BME280;964;42.606;23.588;2024-03-07T00:58:07;94275.63;;;14.99;53.56
1926;BME280;964;42.606;23.588;2024-03-07T01:00:33;94280.97;;;14.99;54.20
1926;BME280;964;42.606;23.588;2024-03-07T01:03:00;94266.06;;;15.12;53.78
1926;BME280;964;42.606;23.588;2024-03-07T01:05:28;94260.84;;;15.99;51.57
1926;BME280;964;42.606;23.588;2024-03-07T01:07:55;94259.28;;;16.71;49.52
1926;BME280;964;42.606;23.588;2024-03-07T01:10:22;94271.81;;;15.04;54.08
1926;BME280;964;42.606;23.588;2024-03-07T01:12:48;94263.34;;;15.51;53.53
1926;BME280;964;42.606;23.588;2024-03-07T01:15:17;94268.78;;;14.91;53.83
1926;BME280;964;42.606;23.588;2024-03-07T01:17:43;94263.34;;;15.51;51.89
1926;BME280;964;42.606;23.588;2024-03-07T01:20:11;94272.56;;;15.18;53.48
1926;BME280;964;42.606;23.588;2024-03-07T01:22:39;94266.66;;;15.84;50.94
1926;BME280;964;42.606;23.588;2024-03-07T01:25:06;94277.94;;;14.69;54.11
1926;BME280;964;42.606;23.588;2024-03-07T01:27:33;94272.88;;;15.42;53.52
1926;BME280;964;42.606;23.588;2024-03-07T01:30:00;94283.25;;;14.41;55.35
1926;BME280;964;42.606;23.588;2024-03-07T01:32:28;94267.00;;;15.89;52.00
1926;BME280;964;42.606;23.588;2024-03-07T01:34:55;94262.44;;;15.86;51.17
1926;BME280;964;42.606;23.588;2024-03-07T01:37:22;94261.63;;;15.96;50.05
1926;BME280;964;42.606;23.588;2024-03-07T01:39:50;94266.72;;;15.73;51.75
1926;BME280;964;42.606;23.588;2024-03-07T01:42:17;94264.06;;;15.48;51.81
1926;BME280;964;42.606;23.588;2024-03-07T01:44:44;94272.50;;;15.47;52.21
1926;BME280;964;42.606;23.588;2024-03-07T01:47:11;94266.94;;;16.69;49.25
1926;BME280;964;42.606;23.588;2024-03-07T01:49:40;94264.88;;;15.49;51.61
1926;BME280;964;42.606;23.588;2024-03-07T01:52:07;94259.44;;;15.77;51.73
1926;BME280;964;42.606;23.588;2024-03-07T01:54:35;94262.94;;;15.46;51.81
1926;BME280;964;42.606;23.588;2024-03-07T01:57:04;94259.47;;;15.70;51.30
1926;BME280;964;42.606;23.588;2024-03-07T01:59:32;94261.91;;;14.83;52.88
1926;BME280;964;42.606;23.588;2024-03-07T02:01:59;94251.88;;;15.58;50.87
1926;BME280;964;42.606;23.588;2024-03-07T02:04:27;94247.09;;;14.75;52.21
1926;BME280;964;42.606;23.588;2024-03-07T02:06:55;94253.47;;;14.24;53.06
1926;BME280;964;42.606;23.588;2024-03-07T02:09:21;94259.56;;;14.07;53.44
1926;BME280;964;42.606;23.588;2024-03-07T02:11:48;94254.25;;;14.32;52.29
1926;BME280;964;42.606;23.588;2024-03-07T02:14:16;94255.81;;;14.65;52.03
1926;BME280;964;42.606;23.588;2024-03-07T02:16:44;94252.03;;;14.45;52.03
1926;BME280;964;42.606;23.588;2024-03-07T02:19:11;94258.44;;;14.15;52.85
1926;BME280;964;42.606;23.588;2024-03-07T02:21:41;94256.47;;;13.88;53.46
1926;BME280;964;42.606;23.588;2024-03-07T02:24:08;94245.91;;;14.83;51.28
1926;BME280;964;42.606;23.588;2024-03-07T02:26:35;94256.59;;;14.48;52.38
1926;BME280;964;42.606;23.588;2024-03-07T02:29:02;94257.94;;;15.69;49.69
1926;BME280;964;42.606;23.588;2024-03-07T02:31:29;94274.59;;;16.01;49.00
1926;BME280;964;42.606;23.588;2024-03-07T02:34:02;94280.16;;;15.23;50.70
1926;BME280;964;42.606;23.588;2024-03-07T02:36:29;94294.47;;;13.85;52.11
1926;BME280;964;42.606;23.588;2024-03-07T02:38:58;94312.00;;;13.13;54.08
1926;BME280;964;42.606;23.588;2024-03-07T02:41:26;94306.16;;;13.01;55.64
1926;BME280;964;42.606;23.588;2024-03-07T02:43:52;94314.88;;;13.52;53.95
1926;BME280;964;42.606;23.588;2024-03-07T02:46:19;94315.88;;;12.79;54.44
1926;BME280;964;42.606;23.588;2024-03-07T02:48:46;94314.34;;;12.74;55.44
1926;BME280;964;42.606;23.588;2024-03-07T02:51:13;94317.38;;;12.73;54.48
1926;BME280;964;42.606;23.588;2024-03-07T02:53:40;94305.94;;;13.16;53.29
1926;BME280;964;42.606;23.588;2024-03-07T02:56:08;94299.47;;;13.14;53.70
1926;BME280;964;42.606;23.588;2024-03-07T02:58:35;94305.03;;;12.51;54.49
1926;BME280;964;42.606;23.588;2024-03-07T03:01:02;94297.31;;;12.39;54.00
1926;BME280;964;42.606;23.588;2024-03-07T03:03:29;94303.97;;;12.18;54.38
1926;BME280;964;42.606;23.588;2024-03-07T03:05:58;94308.81;;;11.76;56.17
1926;BME280;964;42.606;23.588;2024-03-07T03:08:25;94300.91;;;12.16;54.75
1926;BME280;964;42.606;23.588;2024-03-07T03:10:53;94289.47;;;12.09;54.85
1926;BME280;964;42.606;23.588;2024-03-07T03:13:23;94285.91;;;11.94;55.52
1926;BME280;964;42.606;23.588;2024-03-07T03:15:50;94279.59;;;12.09;53.74
1926;BME280;964;42.606;23.588;2024-03-07T03:18:17;94276.91;;;12.50;53.84
1926;BME280;964;42.606;23.588;2024-03-07T03:20:44;94279.28;;;11.81;56.04
1926;BME280;964;42.606;23.588;2024-03-07T03:23:13;94278.56;;;11.84;56.05
1926;BME280;964;42.606;23.588;2024-03-07T03:25:41;94266.16;;;11.95;55.89
1926;BME280;964;42.606;23.588;2024-03-07T03:28:08;94275.91;;;11.84;57.76
1926;BME280;964;42.606;23.588;2024-03-07T03:30:38;94267.63;;;11.59;56.16
1926;BME280;964;42.606;23.588;2024-03-07T03:33:05;94262.72;;;11.91;56.20
1926;BME280;964;42.606;23.588;2024-03-07T03:35:32;94253.81;;;11.73;56.94
1926;BME280;964;42.606;23.588;2024-03-07T03:37:59;94266.56;;;11.97;56.85
1926;BME280;964;42.606;23.588;2024-03-07T03:40:26;94273.50;;;11.42;58.37
1926;BME280;964;42.606;23.588;2024-03-07T03:42:53;94262.22;;;12.15;56.17
1926;BME280;964;42.606;23.588;2024-03-07T03:45:20;94267.97;;;11.54;57.55
1926;BME280;964;42.606;23.588;2024-03-07T03:47:49;94277.41;;;11.82;57.77
1926;BME280;964;42.606;23.588;2024-03-07T03:50:16;94273.63;;;12.19;55.76
1926;BME280;964;42.606;23.588;2024-03-07T03:52:43;94279.22;;;11.74;57.53
1926;BME280;964;42.606;23.588;2024-03-07T03:55:10;94275.59;;;12.26;57.36
1926;BME280;964;42.606;23.588;2024-03-07T03:57:38;94273.34;;;12.32;55.04
1926;BME280;964;42.606;23.588;2024-03-07T04:00:07;94280.25;;;12.40;56.36
1926;BME280;964;42.606;23.588;2024-03-07T04:02:38;94286.31;;;12.00;55.86
1926;BME280;964;42.606;23.588;2024-03-07T04:05:07;94292.75;;;12.36;56.40
1926;BME280;964;42.606;23.588;2024-03-07T04:07:36;94312.88;;;12.00;57.03
1926;BME280;964;42.606;23.588;2024-03-07T04:10:03;94296.09;;;12.29;56.17
1926;BME280;964;42.606;23.588;2024-03-07T04:12:32;94290.63;;;12.52;55.03
1926;BME280;964;42.606;23.588;2024-03-07T04:14:59;94285.31;;;11.78;56.53
1926;BME280;964;42.606;23.588;2024-03-07T04:17:26;94257.88;;;11.67;57.06
1926;BME280;964;42.606;23.588;2024-03-07T04:19:53;94232.28;;;11.82;57.74
1926;BME280;964;42.606;23.588;2024-03-07T04:22:21;94245.53;;;12.18;55.87
1926;BME280;964;42.606;23.588;2024-03-07T04:24:48;94261.53;;;11.55;57.59
1926;BME280;964;42.606;23.588;2024-03-07T04:27:19;94262.00;;;11.94;56.75
1926;BME280;964;42.606;23.588;2024-03-07T04:29:47;94270.84;;;12.46;54.77
1926;BME280;964;42.606;23.588;2024-03-07T04:32:15;94259.69;;;11.93;54.87
1926;BME280;964;42.606;23.588;2024-03-07T04:34:43;94268.63;;;11.77;57.12
1926;BME280;964;42.606;23.588;2024-03-07T04:37:10;94273.91;;;11.74;55.98
1926;BME280;964;42.606;23.588;2024-03-07T04:39:39;94263.28;;;11.74;56.28
1926;BME280;964;42.606;23.588;2024-03-07T04:42:07;94264.41;;;12.10;55.06
1926;BME280;964;42.606;23.588;2024-03-07T04:44:35;94251.53;;;12.08;53.88
1926;BME280;964;42.606;23.588;2024-03-07T04:47:02;94256.81;;;12.08;54.77
1926;BME280;964;42.606;23.588;2024-03-07T04:49:31;94251.69;;;13.35;51.54
1926;BME280;964;42.606;23.588;2024-03-07T04:51:59;94266.19;;;13.45;50.63
1926;BME280;964;42.606;23.588;2024-03-07T04:54:27;94270.16;;;12.56;51.65
1926;BME280;964;42.606;23.588;2024-03-07T04:56:56;94281.84;;;12.48;52.47
1926;BME280;964;42.606;23.588;2024-03-07T04:59:23;94257.34;;;13.26;51.23
1926;BME280;964;42.606;23.588;2024-03-07T05:01:50;94266.59;;;13.47;50.54
1926;BME280;964;42.606;23.588;2024-03-07T05:04:17;94276.69;;;13.20;50.61
1926;BME280;964;42.606;23.588;2024-03-07T05:06:45;94266.47;;;14.83;46.86
1926;BME280;964;42.606;23.588;2024-03-07T05:09:13;94286.94;;;14.01;47.91
1926;BME280;964;42.606;23.588;2024-03-07T05:11:48;94288.09;;;13.20;49.72
1926;BME280;964;42.606;23.588;2024-03-07T05:14:18;94278.63;;;14.23;48.32
1926;BME280;964;42.606;23.588;2024-03-07T05:16:45;94280.22;;;14.70;46.96
1926;BME280;964;42.606;23.588;2024-03-07T05:19:27;94295.09;;;14.71;47.18
1926;BME280;964;42.606;23.588;2024-03-07T05:21:54;94305.66;;;14.33;47.37
1926;BME280;964;42.606;23.588;2024-03-07T05:24:21;94318.31;;;15.03;46.36
1926;BME280;964;42.606;23.588;2024-03-07T05:26:48;94314.88;;;15.13;46.05
1926;BME280;964;42.606;23.588;2024-03-07T05:29:14;94310.69;;;14.80;46.84
1926;BME280;964;42.606;23.588;2024-03-07T05:31:44;94313.75;;;14.75;47.21
1926;BME280;964;42.606;23.588;2024-03-07T05:34:12;94325.78;;;14.09;48.10
1926;BME280;964;42.606;23.588;2024-03-07T05:36:40;94321.16;;;13.95;49.35
1926;BME280;964;42.606;23.588;2024-03-07T05:39:11;94314.50;;;14.65;47.76
1926;BME280;964;42.606;23.588;2024-03-07T05:41:38;94309.56;;;14.88;46.52
1926;BME280;964;42.606;23.588;2024-03-07T05:44:05;94305.34;;;14.48;48.41
1926;BME280;964;42.606;23.588;2024-03-07T05:46:34;94303.09;;;14.93;47.55
1926;BME280;964;42.606;23.588;2024-03-07T05:49:03;94295.38;;;14.20;48.39
1926;BME280;964;42.606;23.588;2024-03-07T05:51:30;94295.44;;;15.09;47.04
1926;BME280;964;42.606;23.588;2024-03-07T05:53:57;94296.13;;;13.27;49.98
1926;BME280;964;42.606;23.588;2024-03-07T05:56:24;94289.03;;;13.49;48.86
1926;BME280;964;42.606;23.588;2024-03-07T05:58:50;94299.56;;;13.32;49.86
1926;BME280;964;42.606;23.588;2024-03-07T06:01:17;94302.72;;;13.48;50.33
1926;BME280;964;42.606;23.588;2024-03-07T06:03:44;94295.94;;;13.68;49.82
1926;BME280;964;42.606;23.588;2024-03-07T06:06:15;94308.09;;;12.53;52.18
1926;BME280;964;42.606;23.588;2024-03-07T06:08:42;94293.47;;;13.27;49.37
1926;BME280;964;42.606;23.588;2024-03-07T06:11:10;94296.25;;;13.56;49.71
1926;BME280;964;42.606;23.588;2024-03-07T06:13:38;94291.66;;;13.46;50.14
1926;BME280;964;42.606;23.588;2024-03-07T06:16:05;94302.66;;;14.41;47.80
1926;BME280;964;42.606;23.588;2024-03-07T06:18:34;94302.25;;;14.36;47.61
1926;BME280;964;42.606;23.588;2024-03-07T06:21:01;94309.81;;;14.19;48.05
1926;BME280;964;42.606;23.588;2024-03-07T06:23:31;94312.22;;;14.74;47.21
1926;BME280;964;42.606;23.588;2024-03-07T06:25:58;94319.69;;;15.85;45.26
1926;BME280;964;42.606;23.588;2024-03-07T06:28:26;94326.66;;;15.58;44.82
1926;BME280;964;42.606;23.588;2024-03-07T06:30:54;94321.69;;;15.53;45.61
1926;BME280;964;42.606;23.588;2024-03-07T06:33:21;94323.56;;;15.81;45.11
1926;BME280;964;42.606;23.588;2024-03-07T06:35:48;94325.88;;;15.61;44.79
1926;BME280;964;42.606;23.588;2024-03-07T06:38:16;94323.63;;;15.20;45.66
1926;BME280;964;42.606;23.588;2024-03-07T06:40:45;94318.97;;;14.25;47.33
1926;BME280;964;42.606;23.588;2024-03-07T06:43:12;94321.88;;;13.85;49.29
1926;BME280;964;42.606;23.588;2024-03-07T06:45:39;94324.53;;;13.13;51.00
1926;BME280;964;42.606;23.588;2024-03-07T06:48:07;94326.22;;;13.39;50.47
1926;BME280;964;42.606;23.588;2024-03-07T06:50:35;94327.00;;;13.43;49.91
1926;BME280;964;42.606;23.588;2024-03-07T06:53:02;94325.50;;;13.45;49.32
1926;BME280;964;42.606;23.588;2024-03-07T06:55:29;94334.09;;;13.21;51.55
1926;BME280;964;42.606;23.588;2024-03-07T06:57:57;94326.06;;;13.86;50.28
1926;BME280;964;42.606;23.588;2024-03-07T07:00:24;94343.63;;;13.25;51.92
1926;BME280;964;42.606;23.588;2024-03-07T07:02:52;94358.72;;;14.94;48.89
1926;BME280;964;42.606;23.588;2024-03-07T07:05:20;94361.78;;;14.89;47.87
1926;BME280;964;42.606;23.588;2024-03-07T07:07:48;94367.09;;;15.39;46.82
1926;BME280;964;42.606;23.588;2024-03-07T07:10:16;94375.50;;;14.98;47.74
1926;BME280;964;42.606;23.588;2024-03-07T07:12:44;94363.25;;;15.72;45.49
1926;BME280;964;42.606;23.588;2024-03-07T07:15:13;94358.69;;;15.68;45.41
1926;BME280;964;42.606;23.588;2024-03-07T07:17:41;94357.56;;;14.74;46.95
1926;BME280;964;42.606;23.588;2024-03-07T07:20:11;94357.06;;;14.30;48.84
1926;BME280;964;42.606;23.588;2024-03-07T07:22:40;94352.00;;;14.03;49.19
1926;BME280;964;42.606;23.588;2024-03-07T07:25:08;94338.84;;;15.41;46.73
1926;BME280;964;42.606;23.588;2024-03-07T07:27:40;94346.88;;;15.31;47.01
1926;BME280;964;42.606;23.588;2024-03-07T07:30:09;94343.06;;;15.49;45.88
1926;BME280;964;42.606;23.588;2024-03-07T07:32:38;94323.53;;;15.84;46.31
1926;BME280;964;42.606;23.588;2024-03-07T07:35:06;94318.31;;;15.06;47.89
1926;BME280;964;42.606;23.588;2024-03-07T07:37:37;94322.81;;;15.45;47.16
1926;BME280;964;42.606;23.588;2024-03-07T07:40:04;94313.00;;;14.78;46.45
1926;BME280;964;42.606;23.588;2024-03-07T07:42:34;94306.75;;;14.17;49.04
1926;BME280;964;42.606;23.588;2024-03-07T07:45:05;94315.19;;;14.27;48.93
1926;BME280;964;42.606;23.588;2024-03-07T07:47:34;94328.06;;;14.17;49.15
1926;BME280;964;42.606;23.588;2024-03-07T07:50:06;94333.50;;;13.49;50.86
1926;BME280;964;42.606;23.588;2024-03-07T07:52:40;94330.94;;;13.70;50.13
1926;BME280;964;42.606;23.588;2024-03-07T07:55:07;94330.47;;;12.96;52.43
1926;BME280;964;42.606;23.588;2024-03-07T07:57:40;94330.97;;;12.68;53.73
1926;BME280;964;42.606;23.588;2024-03-07T08:00:09;94317.88;;;12.89;52.61
1926;BME280;964;42.606;23.588;2024-03-07T08:02:37;94327.63;;;13.18;51.42
1926;BME280;964;42.606;23.588;2024-03-07T08:05:05;94314.22;;;13.69;50.71
1926;BME280;964;42.606;23.588;2024-03-07T08:07:32;94323.47;;;13.24;52.92
1926;BME280;964;42.606;23.588;2024-03-07T08:09:59;94287.34;;;13.20;50.76
1926;BME280;964;42.606;23.588;2024-03-07T08:12:26;94310.75;;;13.58;50.85
1926;BME280;964;42.606;23.588;2024-03-07T08:14:52;94305.47;;;13.65;50.65
1926;BME280;964;42.606;23.588;2024-03-07T08:17:20;94311.81;;;13.43;51.40
1926;BME280;964;42.606;23.588;2024-03-07T08:19:47;94300.34;;;13.36;51.03
1926;BME280;964;42.606;23.588;2024-03-07T08:22:16;94292.38;;;14.40;49.48
1926;BME280;964;42.606;23.588;2024-03-07T08:24:43;94291.56;;;14.29;49.08
1926;BME280;964;42.606;23.588;2024-03-07T08:27:11;94284.00;;;14.94;47.68
1926;BME280;964;42.606;23.588;2024-03-07T08:29:37;94295.41;;;15.27;46.40
1926;BME280;964;42.606;23.588;2024-03-07T08:32:05;94312.94;;;15.28;47.17
1926;BME280;964;42.606;23.588;2024-03-07T08:34:32;94318.31;;;14.92;47.96
1926;BME280;964;42.606;23.588;2024-03-07T08:36:59;94325.88;;;15.61;47.09
1926;BME280;964;42.606;23.588;2024-03-07T08:39:27;94324.38;;;15.53;48.10
1926;BME280;964;42.606;23.588;2024-03-07T08:41:54;94323.94;;;17.10;44.71
1926;BME280;964;42.606;23.588;2024-03-07T08:44:21;94334.97;;;15.81;46.36
1926;BME280;964;42.606;23.588;2024-03-07T08:46:47;94343.03;;;15.63;45.70
1926;BME280;964;42.606;23.588;2024-03-07T08:49:14;94346.50;;;15.29;46.65
1926;BME280;964;42.606;23.588;2024-03-07T08:51:42;94351.69;;;15.99;44.93
1926;BME280;964;42.606;23.588;2024-03-07T08:54:09;94349.50;;;17.19;43.54
1926;BME280;964;42.606;23.588;2024-03-07T08:56:37;94333.56;;;19.50;40.34
1926;BME280;964;42.606;23.588;2024-03-07T08:59:04;94327.59;;;20.77;37.93
1926;BME280;964;42.606;23.588;2024-03-07T09:01:31;94332.81;;;21.81;35.41
1926;BME280;964;42.606;23.588;2024-03-07T09:03:59;94318.75;;;22.57;34.01
1926;BME280;964;42.606;23.588;2024-03-07T09:06:26;94328.31;;;22.20;33.79
1926;BME280;964;42.606;23.588;2024-03-07T09:08:53;94328.78;;;21.57;34.44
1926;BME280;964;42.606;23.588;2024-03-07T09:11:19;94333.81;;;21.71;34.16
1926;BME280;964;42.606;23.588;2024-03-07T09:13:47;94332.41;;;22.78;33.46
1926;BME280;964;42.606;23.588;2024-03-07T09:16:15;94330.78;;;22.68;33.45
1926;BME280;964;42.606;23.588;2024-03-07T09:18:42;94342.44;;;22.65;33.58
1926;BME280;964;42.606;23.588;2024-03-07T09:21:08;94342.19;;;21.89;33.78
1926;BME280;964;42.606;23.588;2024-03-07T09:23:35;94338.81;;;22.02;33.75
1926;BME280;964;42.606;23.588;2024-03-07T09:26:02;94350.03;;;20.90;34.47
1926;BME280;964;42.606;23.588;2024-03-07T09:28:31;94341.44;;;20.79;35.11
1926;BME280;964;42.606;23.588;2024-03-07T09:30:59;94353.97;;;20.50;36.63
1926;BME280;964;42.606;23.588;2024-03-07T09:33:26;94357.72;;;19.27;38.46
1926;BME280;964;42.606;23.588;2024-03-07T09:35:53;94347.38;;;19.95;38.18
1926;BME280;964;42.606;23.588;2024-03-07T09:38:20;94359.59;;;18.80;40.28
1926;BME280;964;42.606;23.588;2024-03-07T09:40:47;94368.97;;;18.04;41.16
1926;BME280;964;42.606;23.588;2024-03-07T09:43:14;94361.56;;;18.16;40.21
1926;BME280;964;42.606;23.588;2024-03-07T09:45:42;94356.91;;;18.80;40.08
1926;BME280;964;42.606;23.588;2024-03-07T09:48:10;94350.38;;;19.97;37.78
1926;BME280;964;42.606;23.588;2024-03-07T09:50:38;94356.47;;;19.12;38.90
1926;BME280;964;42.606;23.588;2024-03-07T09:53:06;94362.75;;;18.45;40.36
1926;BME280;964;42.606;23.588;2024-03-07T09:55:34;94375.09;;;18.39;41.12
1926;BME280;964;42.606;23.588;2024-03-07T09:58:00;94370.38;;;17.82;42.04
1926;BME280;964;42.606;23.588;2024-03-07T10:00:29;94358.94;;;18.73;41.06
1926;BME280;964;42.606;23.588;2024-03-07T10:02:57;94357.53;;;18.65;41.52
1926;BME280;964;42.606;23.588;2024-03-07T10:05:27;94365.00;;;18.16;44.57
1926;BME280;964;42.606;23.588;2024-03-07T10:07:55;94370.44;;;17.75;44.76
1926;BME280;964;42.606;23.588;2024-03-07T10:10:22;94370.50;;;17.68;45.11
1926;BME280;964;42.606;23.588;2024-03-07T10:12:49;94375.38;;;16.84;45.85
1926;BME280;964;42.606;23.588;2024-03-07T10:15:18;94364.91;;;17.07;46.11
1926;BME280;964;42.606;23.588;2024-03-07T10:17:45;94364.94;;;17.04;44.52
1926;BME280;964;42.606;23.588;2024-03-07T10:20:12;94369.06;;;16.57;45.49
1926;BME280;964;42.606;23.588;2024-03-07T10:22:41;94371.69;;;16.64;44.94
1926;BME280;964;42.606;23.588;2024-03-07T10:25:08;94368.69;;;17.10;44.41
1926;BME280;964;42.606;23.588;2024-03-07T10:27:38;94362.63;;;16.37;45.46
1926;BME280;964;42.606;23.588;2024-03-07T10:30:06;94358.38;;;16.50;46.78
1926;BME280;964;42.606;23.588;2024-03-07T10:32:34;94362.63;;;17.02;45.46
1926;BME280;964;42.606;23.588;2024-03-07T10:35:01;94366.00;;;16.48;46.69
1926;BME280;964;42.606;23.588;2024-03-07T10:37:28;94363.38;;;17.51;45.28
1926;BME280;964;42.606;23.588;2024-03-07T10:39:57;94366.38;;;17.15;45.27
1926;BME280;964;42.606;23.588;2024-03-07T10:42:27;94361.88;;;17.02;45.45
1926;BME280;964;42.606;23.588;2024-03-07T10:45:01;94362.72;;;16.88;44.97
1926;BME280;964;42.606;23.588;2024-03-07T10:47:30;94358.47;;;17.42;45.42
1926;BME280;964;42.606;23.588;2024-03-07T10:50:05;94351.13;;;17.05;45.23
1926;BME280;964;42.606;23.588;2024-03-07T10:52:45;94355.09;;;16.87;45.37
1926;BME280;964;42.606;23.588;2024-03-07T10:55:24;94355.94;;;16.73;45.58
1926;BME280;964;42.606;23.588;2024-03-07T10:58:01;94353.22;;;17.32;44.68
1926;BME280;964;42.606;23.588;2024-03-07T11:00:30;94354.41;;;16.72;45.90
1926;BME280;964;42.606;23.588;2024-03-07T11:03:02;94350.72;;;17.55;45.17
1926;BME280;964;42.606;23.588;2024-03-07T11:05:33;94348.22;;;17.37;44.56
1926;BME280;964;42.606;23.588;2024-03-07T11:08:01;94346.41;;;15.82;45.31
1926;BME280;964;42.606;23.588;2024-03-07T11:10:35;94350.81;;;16.31;46.47
1926;BME280;964;42.606;23.588;2024-03-07T11:13:03;94347.84;;;16.07;46.12
1926;BME280;964;42.606;23.588;2024-03-07T11:15:32;94343.53;;;16.35;45.91
1926;BME280;964;42.606;23.588;2024-03-07T11:18:00;94349.56;;;15.55;47.75
1926;BME280;964;42.606;23.588;2024-03-07T11:20:34;94344.03;;;16.08;46.81
1926;BME280;964;42.606;23.588;2024-03-07T11:23:24;94344.22;;;15.27;47.95
1926;BME280;964;42.606;23.588;2024-03-07T11:25:55;94348.78;;;15.16;48.25
1926;BME280;964;42.606;23.588;2024-03-07T11:28:29;94341.16;;;15.57;47.11
1926;BME280;964;42.606;23.588;2024-03-07T11:31:07;94345.59;;;16.02;46.42
1926;BME280;964;42.606;23.588;2024-03-07T11:33:37;94347.03;;;16.17;46.80
1926;BME280;964;42.606;23.588;2024-03-07T11:36:07;94339.50;;;15.98;46.17
1926;BME280;964;42.606;23.588;2024-03-07T11:38:35;94340.16;;;16.27;47.08
1926;BME280;964;42.606;23.588;2024-03-07T11:41:04;94340.94;;;16.21;46.49
1926;BME280;964;42.606;23.588;2024-03-07T11:43:33;94346.19;;;16.42;46.96
1926;BME280;964;42.606;23.588;2024-03-07T11:46:01;94348.31;;;15.92;46.47
1926;BME280;964;42.606;23.588;2024-03-07T11:48:28;94349.38;;;16.08;47.04
1926;BME280;964;42.606;23.588;2024-03-07T11:50:56;94341.41;;;16.01;47.53
1926;BME280;964;42.606;23.588;2024-03-07T11:53:23;94345.00;;;14.99;48.05
1926;BME280;964;42.606;23.588;2024-03-07T11:55:50;94349.53;;;15.66;47.74
1926;BME280;964;42.606;23.588;2024-03-07T11:58:21;94346.50;;;15.57;47.21
1926;BME280;964;42.606;23.588;2024-03-07T12:00:49;94337.31;;;15.65;47.68
1926;BME280;964;42.606;23.588;2024-03-07T12:03:17;94351.84;;;15.50;48.04
1926;BME280;964;42.606;23.588;2024-03-07T12:05:46;94360.97;;;14.57;49.55
1926;BME280;964;42.606;23.588;2024-03-07T12:08:13;94344.97;;;15.35;47.80
1926;BME280;964;42.606;23.588;2024-03-07T12:10:41;94353.34;;;14.66;49.40
1926;BME280;964;42.606;23.588;2024-03-07T12:13:09;94363.59;;;14.43;49.91
1926;BME280;964;42.606;23.588;2024-03-07T12:15:38;94357.53;;;14.60;50.07
1926;BME280;964;42.606;23.588;2024-03-07T12:18:06;94353.38;;;14.94;48.67
1926;BME280;964;42.606;23.588;2024-03-07T12:20:36;94354.91;;;14.92;48.58
1926;BME280;964;42.606;23.588;2024-03-07T12:23:04;94352.59;;;14.69;48.62
1926;BME280;964;42.606;23.588;2024-03-07T12:25:33;94345.78;;;14.96;48.05
1926;BME280;964;42.606;23.588;2024-03-07T12:28:02;94348.78;;;14.70;48.37
1926;BME280;964;42.606;23.588;2024-03-07T12:30:33;94346.50;;;14.79;48.69
1926;BME280;964;42.606;23.588;2024-03-07T12:33:01;94344.25;;;14.88;48.60
1926;BME280;964;42.606;23.588;2024-03-07T12:35:29;94339.66;;;14.85;48.65
1926;BME280;964;42.606;23.588;2024-03-07T12:37:58;94336.63;;;15.11;48.45
1926;BME280;964;42.606;23.588;2024-03-07T12:40:25;94332.03;;;15.23;48.42
1926;BME280;964;42.606;23.588;2024-03-07T12:42:55;94332.38;;;15.35;46.94
1926;BME280;964;42.606;23.588;2024-03-07T12:45:22;94328.19;;;15.41;47.47
1926;BME280;964;42.606;23.588;2024-03-07T12:47:51;94320.19;;;15.27;47.65
1926;BME280;964;42.606;23.588;2024-03-07T12:50:21;94319.84;;;15.14;48.08
1926;BME280;964;42.606;23.588;2024-03-07T12:52:48;94319.84;;;15.21;47.71
1926;BME280;964;42.606;23.588;2024-03-07T12:55:16;94320.56;;;15.43;47.46
1926;BME280;964;42.606;23.588;2024-03-07T12:57:47;94314.41;;;15.71;46.92
1926;BME280;964;42.606;23.588;2024-03-07T13:00:16;94322.50;;;15.29;47.54
1926;BME280;964;42.606;23.588;2024-03-07T13:02:46;94316.72;;;15.65;47.15
1926;BME280;964;42.606;23.588;2024-03-07T13:05:13;94309.72;;;15.96;46.84
1926;BME280;964;42.606;23.588;2024-03-07T13:07:46;94305.16;;;15.93;46.96
1926;BME280;964;42.606;23.588;2024-03-07T13:10:14;94316.69;;;15.76;47.35
1926;BME280;964;42.606;23.588;2024-03-07T13:12:42;94317.50;;;15.66;47.75
1926;BME280;964;42.606;23.588;2024-03-07T13:15:11;94315.72;;;16.22;45.98
1926;BME280;964;42.606;23.588;2024-03-07T13:17:38;94317.81;;;16.62;44.67
1926;BME280;964;42.606;23.588;2024-03-07T13:20:06;94318.94;;;15.78;46.19
1926;BME280;964;42.606;23.588;2024-03-07T13:22:41;94322.75;;;15.87;45.01
1926;BME280;964;42.606;23.588;2024-03-07T13:25:16;94312.03;;;15.98;45.53
1926;BME280;964;42.606;23.588;2024-03-07T13:27:51;94314.91;;;16.32;44.96